createdAt,value
2018-06-22T00:01:41.323Z,1.73
2018-06-22T00:04:09.879Z,1.50
2018-06-22T00:06:38.696Z,1.47
2018-06-22T00:09:08.898Z,1.20
2018-06-22T00:11:37.493Z,1.13
2018-06-22T00:14:06.472Z,1.20
2018-06-22T00:16:35.051Z,1.30
2018-06-22T00:19:03.606Z,1.43
2018-06-22T00:21:31.849Z,1.87
2018-06-22T00:24:00.418Z,1.40
2018-06-22T00:26:29.013Z,1.00
2018-06-22T00:28:57.545Z,1.37
2018-06-22T00:31:26.114Z,1.50
2018-06-22T00:33:54.321Z,1.17
2018-06-22T00:36:23.841Z,1.27
2018-06-22T00:38:52.373Z,1.13
2018-06-22T00:41:21.167Z,1.33
2018-06-22T00:43:49.649Z,1.40
2018-06-22T00:46:17.884Z,1.93
2018-06-22T00:48:47.265Z,1.87
2018-06-22T00:51:15.843Z,1.73
2018-06-22T00:53:55.629Z,1.77
2018-06-22T00:56:24.407Z,1.43
2018-06-22T00:58:52.978Z,1.63
2018-06-22T01:01:21.596Z,1.67
2018-06-22T01:03:50.182Z,2.00
2018-06-22T01:06:18.763Z,1.83
2018-06-22T01:08:47.346Z,1.37
2018-06-22T01:11:15.943Z,1.23
2018-06-22T01:13:44.517Z,1.43
2018-06-22T01:16:13.127Z,1.50
2018-06-22T01:18:41.797Z,1.33
2018-06-22T01:21:10.402Z,1.30
2018-06-22T01:23:39.843Z,1.30
2018-06-22T01:26:08.472Z,1.43
2018-06-22T01:28:37.310Z,1.30
2018-06-22T01:31:06.819Z,1.27
2018-06-22T01:33:35.398Z,1.60
2018-06-22T01:36:04.035Z,1.37
2018-06-22T01:38:32.602Z,0.90
2018-06-22T01:41:01.214Z,1.40
2018-06-22T01:43:29.837Z,1.40
2018-06-22T01:45:58.417Z,1.83
2018-06-22T01:48:27.604Z,1.67
2018-06-22T01:50:56.953Z,1.70
2018-06-22T01:53:25.511Z,1.57
2018-06-22T01:55:54.561Z,1.70
2018-06-22T01:58:23.798Z,1.93
2018-06-22T02:00:52.378Z,2.10
2018-06-22T02:03:20.948Z,2.60
2018-06-22T02:05:49.592Z,2.00
2018-06-22T02:08:18.118Z,1.90
2018-06-22T02:10:46.389Z,2.23
2018-06-22T02:13:15.088Z,2.10
2018-06-22T02:15:43.658Z,2.10
2018-06-22T02:18:18.387Z,1.30
2018-06-22T02:20:46.660Z,2.03
2018-06-22T02:23:15.301Z,1.60
2018-06-22T02:25:43.918Z,1.30
2018-06-22T02:28:12.492Z,1.47
2018-06-22T02:30:41.815Z,1.50
2018-06-22T02:33:10.774Z,1.73
2018-06-22T02:35:39.324Z,1.37
2018-06-22T02:38:08.184Z,1.53
2018-06-22T02:40:37.433Z,1.30
2018-06-22T02:43:06.123Z,1.37
2018-06-22T02:45:34.710Z,1.20
2018-06-22T02:48:03.290Z,2.03
2018-06-22T02:50:31.850Z,2.30
2018-06-22T02:53:00.460Z,2.00
2018-06-22T02:55:29.042Z,1.60
2018-06-22T02:57:57.730Z,1.80
2018-06-22T03:00:26.310Z,1.40
2018-06-22T03:02:54.895Z,1.80
2018-06-22T03:05:23.450Z,1.60
2018-06-22T03:07:52.040Z,1.60
2018-06-22T03:10:20.609Z,1.50
2018-06-22T03:12:49.190Z,1.40
2018-06-22T03:15:17.738Z,1.60
2018-06-22T03:17:46.313Z,1.50
2018-06-22T03:20:14.945Z,1.50
2018-06-22T03:22:43.525Z,1.30
2018-06-22T03:25:12.074Z,1.37
2018-06-22T03:27:41.078Z,1.80
2018-06-22T03:30:11.069Z,2.17
2018-06-22T03:32:39.652Z,1.83
2018-06-22T03:35:08.185Z,1.70
2018-06-22T03:37:36.752Z,1.70
2018-06-22T03:40:05.318Z,2.57
2018-06-22T03:42:33.901Z,1.83
2018-06-22T03:45:02.670Z,1.50
2018-06-22T03:47:31.241Z,1.53
2018-06-22T03:49:59.962Z,1.70
2018-06-22T03:52:28.538Z,2.07
2018-06-22T03:54:57.092Z,1.50
2018-06-22T03:57:25.706Z,1.70
2018-06-22T03:59:54.994Z,1.77
2018-06-22T04:02:23.563Z,1.60
2018-06-22T04:04:52.112Z,2.37
2018-06-22T04:07:21.482Z,1.83
2018-06-22T04:09:50.051Z,1.57
2018-06-22T04:12:18.613Z,2.13
2018-06-22T04:14:47.177Z,2.77
2018-06-22T04:17:15.935Z,2.73
2018-06-22T04:19:44.534Z,3.23
2018-06-22T04:22:13.732Z,2.83
2018-06-22T04:24:42.302Z,3.07
2018-06-22T04:27:10.887Z,2.77
2018-06-22T04:29:39.892Z,2.80
2018-06-22T04:32:08.436Z,2.60
2018-06-22T04:34:37.016Z,2.90
2018-06-22T04:37:05.928Z,2.37
2018-06-22T04:39:34.496Z,2.37
2018-06-22T04:42:03.065Z,2.47
2018-06-22T04:44:31.781Z,1.70
2018-06-22T04:47:00.328Z,2.37
2018-06-22T04:49:29.594Z,1.90
2018-06-22T04:51:58.141Z,2.00
2018-06-22T04:54:27.375Z,1.60
2018-06-22T04:56:55.962Z,2.00
2018-06-22T04:59:25.149Z,1.83
2018-06-22T05:01:54.493Z,1.70
2018-06-22T05:04:23.086Z,2.13
2018-06-22T05:06:51.658Z,2.00
2018-06-22T05:09:19.922Z,1.90
2018-06-22T05:11:48.636Z,1.77
2018-06-22T05:14:17.098Z,1.60
2018-06-22T05:16:45.656Z,1.57
2018-06-22T05:19:14.217Z,1.50
2018-06-22T05:21:43.369Z,1.50
2018-06-22T05:24:12.377Z,1.70
2018-06-22T05:26:40.614Z,1.93
2018-06-22T05:29:09.195Z,1.83
2018-06-22T05:31:37.772Z,2.23
2018-06-22T05:34:06.384Z,1.80
2018-06-22T05:36:34.716Z,3.50
2018-06-22T05:39:11.829Z,2.27
2018-06-22T05:41:40.712Z,1.50
2018-06-22T05:44:09.974Z,1.93
2018-06-22T05:46:38.574Z,1.50
2018-06-22T05:49:07.143Z,1.60
2018-06-22T05:51:36.115Z,1.90
2018-06-22T05:54:04.775Z,1.80
2018-06-22T05:56:33.401Z,2.37
2018-06-22T05:59:02.033Z,1.97
2018-06-22T06:01:30.675Z,1.80
2018-06-22T06:03:59.382Z,1.40
2018-06-22T06:06:28.146Z,7.37
2018-06-22T06:08:56.802Z,3.50
2018-06-22T06:11:25.429Z,3.80
2018-06-22T06:13:54.081Z,4.10
2018-06-22T06:16:22.744Z,3.53
2018-06-22T06:18:51.390Z,2.07
2018-06-22T06:21:20.091Z,5.27
2018-06-22T06:23:49.786Z,4.17
2018-06-22T06:26:18.378Z,2.20
2018-06-22T06:28:47.043Z,2.17
2018-06-22T06:31:19.230Z,4.20
2018-06-22T06:33:49.040Z,2.73
2018-06-22T06:36:18.849Z,2.17
2018-06-22T06:38:49.176Z,4.07
2018-06-22T06:41:17.763Z,2.00
2018-06-22T06:43:46.345Z,1.60
2018-06-22T06:46:14.928Z,1.80
2018-06-22T06:48:43.545Z,2.10
2018-06-22T06:51:13.329Z,1.47
2018-06-22T06:53:42.431Z,2.27
2018-06-22T06:56:11.965Z,1.60
2018-06-22T06:58:40.513Z,1.80
2018-06-22T07:01:09.669Z,3.17
2018-06-22T07:03:38.250Z,2.10
2018-06-22T07:06:06.870Z,1.93
2018-06-22T07:08:35.599Z,2.00
2018-06-22T07:11:04.258Z,1.87
2018-06-22T07:13:33.377Z,1.63
2018-06-22T07:16:02.025Z,2.00
2018-06-22T07:18:30.592Z,1.70
2018-06-22T07:20:59.177Z,1.47
2018-06-22T07:23:28.871Z,1.43
2018-06-22T07:25:57.537Z,1.53
2018-06-22T07:28:26.111Z,1.50
2018-06-22T07:30:54.995Z,1.50
2018-06-22T07:33:24.216Z,1.57
2018-06-22T07:35:53.718Z,1.20
2018-06-22T07:38:22.282Z,1.30
2018-06-22T07:40:51.038Z,1.20
2018-06-22T07:43:19.637Z,1.50
2018-06-22T07:45:49.038Z,1.57
2018-06-22T07:48:17.649Z,1.20
2018-06-22T07:50:46.321Z,1.23
2018-06-22T07:53:16.409Z,1.50
2018-06-22T07:55:45.150Z,1.30
2018-06-22T07:58:13.710Z,1.73
2018-06-22T08:00:42.885Z,1.87
2018-06-22T08:03:11.107Z,0.90
2018-06-22T08:05:39.683Z,1.73
2018-06-22T08:08:08.287Z,1.00
2018-06-22T08:10:36.960Z,1.40
2018-06-22T08:13:06.481Z,1.30
2018-06-22T08:15:35.066Z,1.20
2018-06-22T08:18:03.664Z,1.50
2018-06-22T08:20:33.063Z,1.20
2018-06-22T08:23:01.618Z,1.40
2018-06-22T08:25:30.268Z,1.20
2018-06-22T08:27:58.851Z,1.47
2018-06-22T08:30:27.092Z,1.40
2018-06-22T08:32:55.681Z,0.93
2018-06-22T08:35:24.281Z,1.10
2018-06-22T08:37:52.969Z,1.10
2018-06-22T08:40:22.932Z,1.30
2018-06-22T08:42:52.113Z,1.20
2018-06-22T08:45:20.697Z,1.30
2018-06-22T08:47:49.284Z,1.30
2018-06-22T08:50:18.042Z,1.60
2018-06-22T08:52:46.688Z,1.27
2018-06-22T08:55:15.341Z,1.40
2018-06-22T08:57:44.313Z,1.10
2018-06-22T09:00:12.589Z,1.00
2018-06-22T09:02:40.837Z,1.00
2018-06-22T09:05:10.645Z,1.07
2018-06-22T09:07:39.274Z,1.20
2018-06-22T09:10:08.115Z,1.70
2018-06-22T09:12:36.816Z,1.70
2018-06-22T09:15:11.556Z,1.63
2018-06-22T09:17:40.361Z,1.13
2018-06-22T09:20:09.569Z,1.40
2018-06-22T09:22:38.590Z,1.57
2018-06-22T09:25:08.368Z,1.10
2018-06-22T09:27:37.182Z,1.47
2018-06-22T09:30:05.818Z,1.07
2018-06-22T09:32:36.350Z,1.40
2018-06-22T09:35:08.498Z,1.43
2018-06-22T09:37:38.257Z,1.10
2018-06-22T09:40:06.772Z,1.17
2018-06-22T09:42:35.769Z,0.93
2018-06-22T09:45:04.030Z,1.30
2018-06-22T09:47:32.759Z,1.10
2018-06-22T09:50:01.367Z,1.60
2018-06-22T09:52:30.157Z,1.50
2018-06-22T09:54:58.603Z,1.90
2018-06-22T09:57:27.853Z,1.10
2018-06-22T09:59:56.181Z,1.50
2018-06-22T10:02:25.281Z,2.07
2018-06-22T10:04:53.859Z,1.20
2018-06-22T10:07:22.745Z,1.43
2018-06-22T10:09:51.512Z,1.10
2018-06-22T10:12:20.508Z,1.10
2018-06-22T10:14:50.651Z,0.93
2018-06-22T10:17:19.289Z,1.53
2018-06-22T10:19:47.482Z,1.60
2018-06-22T10:22:15.783Z,1.10
2018-06-22T10:24:44.392Z,1.43
2018-06-22T10:27:13.159Z,1.10
2018-06-22T10:29:41.705Z,1.00
2018-06-22T10:32:09.912Z,1.27
2018-06-22T10:34:38.492Z,1.30
2018-06-22T10:37:07.105Z,1.30
2018-06-22T10:39:36.709Z,1.30
2018-06-22T10:42:06.394Z,1.10
2018-06-22T10:44:34.997Z,1.13
2018-06-22T10:47:03.661Z,1.73
2018-06-22T10:49:32.308Z,1.20
2018-06-22T10:52:00.951Z,0.90
2018-06-22T10:54:29.542Z,1.07
2018-06-22T10:56:58.773Z,1.37
2018-06-22T10:59:27.529Z,1.00
2018-06-22T11:02:00.115Z,0.90
2018-06-22T11:04:29.807Z,1.27
2018-06-22T11:06:59.925Z,1.30
2018-06-22T11:09:28.519Z,1.10
2018-06-22T11:11:57.748Z,1.27
2018-06-22T11:14:26.602Z,1.07
2018-06-22T11:16:55.213Z,1.10
2018-06-22T11:19:23.800Z,1.20
2018-06-22T11:21:52.385Z,0.80
2018-06-22T11:24:20.974Z,1.30
2018-06-22T11:26:49.625Z,1.40
2018-06-22T11:29:18.241Z,1.30
2018-06-22T11:31:46.833Z,1.40
2018-06-22T11:34:15.422Z,1.20
2018-06-22T11:36:43.998Z,1.13
2018-06-22T11:39:12.588Z,1.17
2018-06-22T11:41:41.849Z,1.13
2018-06-22T11:44:11.000Z,1.23
2018-06-22T11:46:39.965Z,1.47
2018-06-22T11:49:09.390Z,1.37
2018-06-22T11:51:37.969Z,1.50
2018-06-22T11:54:06.651Z,1.40
2018-06-22T11:56:35.837Z,1.10
2018-06-22T11:59:04.585Z,1.10
2018-06-22T12:01:33.154Z,0.83
2018-06-22T12:04:01.428Z,1.00
2018-06-22T12:06:30.012Z,0.90
2018-06-22T12:08:58.262Z,0.97
2018-06-22T12:11:26.872Z,1.07
2018-06-22T12:13:56.177Z,1.40
2018-06-22T12:16:24.810Z,1.40
2018-06-22T12:18:53.433Z,1.10
2018-06-22T12:21:22.625Z,1.30
2018-06-22T12:23:51.756Z,1.00
2018-06-22T12:26:20.774Z,0.80
2018-06-22T12:28:49.761Z,1.17
2018-06-22T12:31:18.325Z,1.10
2018-06-22T12:33:47.022Z,1.03
2018-06-22T12:36:15.601Z,1.10
2018-06-22T12:38:43.897Z,1.30
2018-06-22T12:41:12.456Z,0.97
2018-06-22T12:43:41.033Z,1.17
2018-06-22T12:46:09.268Z,1.00
2018-06-22T12:48:37.861Z,1.00
2018-06-22T12:51:06.957Z,0.97
2018-06-22T12:53:35.763Z,1.10
2018-06-22T12:56:04.930Z,1.30
2018-06-22T12:58:33.592Z,1.53
2018-06-22T13:01:02.453Z,1.20
2018-06-22T13:03:31.561Z,1.00
2018-06-22T13:06:00.144Z,1.20
2018-06-22T13:08:28.734Z,1.00
2018-06-22T13:10:56.944Z,1.30
2018-06-22T13:13:26.329Z,1.17
2018-06-22T13:15:54.891Z,1.33
2018-06-22T13:18:23.473Z,1.37
2018-06-22T13:20:51.701Z,1.20
2018-06-22T13:23:20.304Z,1.70
2018-06-22T13:25:48.900Z,1.30
2018-06-22T13:28:17.500Z,1.43
2018-06-22T13:30:45.750Z,1.27
2018-06-22T13:33:14.453Z,1.47
2018-06-22T13:35:42.968Z,1.30
2018-06-22T13:38:12.245Z,1.43
2018-06-22T13:40:40.508Z,1.23
2018-06-22T13:43:09.614Z,1.53
2018-06-22T13:45:38.399Z,1.10
2018-06-22T13:48:07.457Z,0.90
2018-06-22T13:50:36.109Z,1.23
2018-06-22T13:53:05.514Z,1.50
2018-06-22T13:55:34.146Z,1.57
2018-06-22T13:58:02.782Z,1.30
2018-06-22T14:00:31.381Z,1.50
2018-06-22T14:02:59.975Z,1.27
2018-06-22T14:05:33.928Z,1.33
2018-06-22T14:08:03.205Z,1.40
2018-06-22T14:10:31.791Z,1.23
2018-06-22T14:13:00.430Z,1.10
2018-06-22T14:15:29.052Z,1.27
2018-06-22T14:17:58.229Z,1.33
2018-06-22T14:20:26.945Z,1.33
2018-06-22T14:22:55.966Z,1.43
2018-06-22T14:25:24.545Z,1.70
2018-06-22T14:27:53.148Z,1.00
2018-06-22T14:30:21.770Z,1.30
2018-06-22T14:32:50.925Z,1.40
2018-06-22T14:35:19.526Z,1.37
2018-06-22T14:37:47.754Z,1.77
2018-06-22T14:40:16.350Z,1.30
2018-06-22T14:42:45.701Z,1.33
2018-06-22T14:45:14.996Z,1.43
2018-06-22T14:47:43.208Z,1.40
2018-06-22T14:50:18.099Z,1.47
2018-06-22T14:52:47.060Z,1.47
2018-06-22T14:55:20.895Z,1.43
2018-06-22T14:57:54.368Z,1.13
2018-06-22T15:01:31.446Z,1.53
2018-06-22T15:04:05.337Z,1.30
2018-06-22T15:06:39.855Z,1.50
2018-06-22T15:09:09.792Z,1.43
2018-06-22T15:11:39.093Z,1.60
2018-06-22T15:14:07.718Z,1.40
2018-06-22T15:16:36.304Z,1.90
2018-06-22T15:19:04.829Z,1.57
2018-06-22T15:21:34.191Z,1.40
2018-06-22T15:24:02.437Z,2.10
2018-06-22T15:26:31.053Z,1.50
2018-06-22T15:28:59.260Z,1.60
2018-06-22T15:31:27.891Z,1.50
2018-06-22T15:34:01.598Z,1.50
2018-06-22T15:36:36.506Z,1.80
2018-06-22T15:39:13.371Z,1.83
2018-06-22T15:41:47.694Z,1.67
2018-06-22T15:44:21.409Z,1.70
2018-06-22T15:46:55.421Z,1.63
2018-06-22T15:50:30.302Z,1.80
2018-06-22T15:53:04.139Z,1.40
2018-06-22T15:55:37.428Z,2.00
2018-06-22T15:58:06.034Z,2.10
2018-06-22T16:00:34.614Z,1.40
2018-06-22T16:03:08.461Z,1.47
2018-06-22T16:05:37.633Z,1.50
2018-06-22T16:08:06.270Z,1.77
2018-06-22T16:10:34.528Z,1.67
2018-06-22T16:13:07.658Z,1.50
2018-06-22T16:15:41.515Z,1.50
2018-06-22T16:21:07.663Z,1.97
2018-06-22T16:23:41.642Z,1.47
2018-06-22T16:26:15.712Z,1.40
2018-06-22T16:28:43.936Z,1.13
2018-06-22T16:31:13.202Z,1.67
2018-06-22T16:33:45.862Z,1.30
2018-06-22T16:36:15.182Z,1.50
2018-06-22T16:38:43.368Z,1.50
2018-06-22T16:41:11.569Z,1.70
2018-06-22T16:43:40.140Z,1.80
2018-06-22T16:46:09.469Z,1.73
2018-06-22T16:48:38.053Z,1.43
2018-06-22T16:51:06.721Z,1.40
2018-06-22T16:53:35.291Z,1.53
2018-06-22T16:56:03.940Z,1.50
2018-06-22T16:58:37.712Z,1.93
2018-06-22T17:01:07.744Z,1.20
2018-06-22T17:03:36.529Z,1.50
2018-06-22T17:06:05.447Z,1.63
2018-06-22T17:08:39.422Z,1.63
2018-06-22T17:11:14.124Z,1.50
2018-06-22T17:13:48.102Z,1.47
2018-06-22T17:16:21.949Z,1.50
2018-06-22T17:18:52.659Z,1.13
2018-06-22T17:21:21.713Z,1.20
2018-06-22T17:23:50.298Z,1.53
2018-06-22T17:26:18.930Z,1.40
2018-06-22T17:28:47.861Z,1.73
2018-06-22T17:31:16.413Z,1.40
2018-06-22T17:33:45.641Z,1.33
2018-06-22T17:36:14.171Z,1.17
2018-06-22T17:38:42.752Z,1.47
2018-06-22T17:41:11.265Z,1.57
2018-06-22T17:43:40.415Z,1.43
2018-06-22T17:46:09.629Z,1.43
2018-06-22T17:48:38.101Z,2.23
2018-06-22T17:51:06.666Z,1.80
2018-06-22T17:53:35.977Z,1.87
2018-06-22T17:56:04.557Z,1.23
2018-06-22T17:58:33.130Z,1.57
2018-06-22T18:01:06.982Z,1.53
2018-06-22T18:03:40.564Z,1.60
2018-06-22T18:06:14.483Z,1.60
2018-06-22T18:08:46.206Z,1.77
2018-06-22T18:11:19.955Z,1.27
2018-06-22T18:13:48.189Z,1.67
2018-06-22T18:16:16.713Z,1.73
2018-06-22T18:18:44.952Z,1.60
2018-06-22T18:21:13.571Z,3.00
2018-06-22T18:23:42.166Z,1.30
2018-06-22T18:26:10.774Z,1.50
2018-06-22T18:28:39.332Z,1.63
2018-06-22T18:31:07.573Z,1.40
2018-06-22T18:33:36.116Z,1.90
2018-06-22T18:36:04.926Z,1.57
2018-06-22T18:38:33.457Z,1.57
2018-06-22T18:41:01.994Z,3.00
2018-06-22T18:43:35.854Z,4.27
2018-06-22T18:46:04.080Z,3.67
2018-06-22T18:48:32.606Z,2.60
2018-06-22T18:51:01.169Z,2.10
2018-06-22T18:53:34.938Z,1.90
2018-06-22T18:56:08.809Z,1.80
2018-06-22T18:58:49.317Z,1.90
2018-06-22T19:01:23.141Z,2.43
2018-06-22T19:03:51.728Z,2.17
2018-06-22T19:06:20.269Z,3.50
2018-06-22T19:08:48.792Z,2.30
2018-06-22T19:11:18.493Z,1.73
2018-06-22T19:13:47.009Z,1.97
2018-06-22T19:16:15.631Z,2.07
2018-06-22T19:18:44.199Z,1.70
2018-06-22T19:21:13.033Z,1.87
2018-06-22T19:23:41.574Z,1.50
2018-06-22T19:26:09.833Z,1.87
2018-06-22T19:28:38.686Z,1.83
2018-06-22T19:31:07.646Z,1.97
2018-06-22T19:33:35.864Z,2.10
2018-06-22T19:36:04.426Z,1.97
2018-06-22T19:38:33.009Z,2.53
2018-06-22T19:41:01.509Z,2.03
2018-06-22T19:43:35.373Z,1.70
2018-06-22T19:46:15.572Z,1.87
2018-06-22T19:48:49.378Z,2.00
2018-06-22T19:51:23.313Z,1.70
2018-06-22T19:54:08.088Z,1.60
2018-06-22T19:56:36.769Z,1.90
2018-06-22T19:59:05.420Z,1.53
2018-06-22T20:01:34.003Z,1.83
2018-06-22T20:04:02.538Z,1.60
2018-06-22T20:06:31.093Z,1.87
2018-06-22T20:08:59.652Z,1.70
2018-06-22T20:11:28.222Z,1.93
2018-06-22T20:13:56.823Z,1.87
2018-06-22T20:16:25.425Z,2.50
2018-06-22T20:18:54.053Z,1.93
2018-06-22T20:21:22.596Z,1.80
2018-06-22T20:23:51.137Z,1.83
2018-06-22T20:26:19.744Z,1.57
2018-06-22T20:28:48.422Z,1.83
2018-06-22T20:31:22.337Z,1.90
2018-06-22T20:33:50.859Z,1.93
2018-06-22T20:36:24.740Z,2.27
2018-06-22T20:38:58.659Z,2.83
2018-06-22T20:41:32.468Z,2.13
2018-06-22T20:44:06.230Z,2.03
2018-06-22T20:46:40.077Z,1.70
2018-06-22T20:49:14.029Z,2.10
2018-06-22T20:51:44.653Z,2.13
2018-06-22T20:54:14.122Z,2.40
2018-06-22T20:56:42.713Z,2.03
2018-06-22T20:59:11.292Z,2.00
2018-06-22T21:01:39.893Z,2.50
2018-06-22T21:04:08.515Z,2.40
2018-06-22T21:06:36.876Z,3.23
2018-06-22T21:09:08.007Z,3.67
2018-06-22T21:11:36.589Z,2.60
2018-06-22T21:14:05.241Z,2.47
2018-06-22T21:16:34.244Z,2.63
2018-06-22T21:19:02.869Z,2.43
2018-06-22T21:21:36.949Z,2.27
2018-06-22T21:24:05.565Z,2.07
2018-06-22T21:26:34.132Z,2.27
2018-06-22T21:30:08.837Z,2.30
2018-06-22T21:32:42.724Z,2.30
2018-06-22T21:35:16.356Z,2.33
2018-06-22T21:37:50.097Z,2.23
2018-06-22T21:40:18.720Z,2.90
2018-06-22T21:42:47.778Z,2.60
2018-06-22T21:45:16.349Z,2.10
2018-06-22T21:47:44.946Z,2.27
2018-06-22T21:50:13.488Z,2.20
2018-06-22T21:52:42.254Z,1.97
2018-06-22T21:55:10.889Z,1.80
2018-06-22T21:57:39.669Z,2.10
2018-06-22T22:00:10.091Z,1.90
2018-06-22T22:02:39.157Z,2.37
2018-06-22T22:05:07.898Z,2.40
2018-06-22T22:07:36.441Z,2.83
2018-06-22T22:10:06.119Z,2.30
2018-06-22T22:12:34.653Z,2.60
2018-06-22T22:15:03.263Z,2.43
2018-06-22T22:17:32.445Z,2.50
2018-06-22T22:20:01.027Z,2.00
2018-06-22T22:22:29.577Z,2.10
2018-06-22T22:24:58.254Z,1.80
2018-06-22T22:27:26.892Z,1.90
2018-06-22T22:29:55.458Z,1.67
2018-06-22T22:32:24.553Z,1.80
2018-06-22T22:34:53.857Z,1.70
2018-06-22T22:37:22.402Z,1.70
2018-06-22T22:39:50.632Z,1.40
2018-06-22T22:42:19.209Z,1.67
2018-06-22T22:44:47.778Z,1.70
2018-06-22T22:47:16.329Z,1.67
2018-06-22T22:49:44.563Z,1.53
2018-06-22T22:52:13.101Z,1.90
2018-06-22T22:54:41.702Z,2.07
2018-06-22T22:57:10.389Z,1.50
2018-06-22T22:59:39.055Z,1.93
2018-06-22T23:02:07.593Z,2.17
2018-06-22T23:04:36.876Z,2.87
2018-06-22T23:07:05.441Z,2.80
2018-06-22T23:09:34.141Z,1.87
2018-06-22T23:12:02.658Z,2.30
2018-06-22T23:14:31.250Z,2.60
2018-06-22T23:16:59.821Z,2.37
2018-06-22T23:19:28.517Z,2.30
2018-06-22T23:21:57.053Z,1.70
2018-06-22T23:24:25.629Z,1.77
2018-06-22T23:26:54.205Z,2.00
2018-06-22T23:29:22.769Z,1.50
2018-06-22T23:31:50.985Z,1.63
2018-06-22T23:34:19.594Z,1.60
2018-06-22T23:36:48.137Z,1.60
2018-06-22T23:39:16.777Z,1.40
2018-06-22T23:41:45.254Z,1.33
2018-06-22T23:44:13.793Z,1.77
2018-06-22T23:46:42.334Z,1.53
2018-06-22T23:49:10.922Z,1.30
2018-06-22T23:51:40.676Z,1.63
2018-06-22T23:54:09.273Z,2.13
2018-06-22T23:56:37.798Z,1.93
2018-06-22T23:59:07.286Z,2.00
